createdAt,value
2023-05-08T00:02:23.817Z,64.86
2023-05-08T00:04:55.494Z,64.42
2023-05-08T00:07:27.105Z,63.97
2023-05-08T00:09:58.748Z,64.22
2023-05-08T00:12:33.735Z,64.47
2023-05-08T00:15:08.464Z,63.92
2023-05-08T00:17:40.059Z,64.31
2023-05-08T00:20:12.974Z,63.68
2023-05-08T00:22:44.709Z,63.63
2023-05-08T00:25:16.467Z,63.78
2023-05-08T00:27:48.013Z,64.75
2023-05-08T00:30:19.857Z,64.26
2023-05-08T00:32:51.787Z,64.11
2023-05-08T00:35:23.555Z,63.97
2023-05-08T00:37:55.155Z,64.10
2023-05-08T00:40:29.040Z,64.67
2023-05-08T00:43:00.784Z,64.45
2023-05-08T00:45:39.479Z,64.15
2023-05-08T00:48:11.132Z,64.02
2023-05-08T00:50:45.525Z,63.59
2023-05-08T00:53:22.530Z,63.82
2023-05-08T00:55:54.450Z,63.96
2023-05-08T00:58:28.843Z,63.91
2023-05-08T01:01:00.947Z,63.90
2023-05-08T01:03:37.119Z,63.57
2023-05-08T01:06:09.333Z,64.17
2023-05-08T01:08:44.964Z,64.07
2023-05-08T01:12:06.579Z,63.95
2023-05-08T01:14:54.195Z,64.10
2023-05-08T01:18:07.008Z,64.08
2023-05-08T01:21:21.628Z,64.97
2023-05-08T01:24:21.424Z,64.24
2023-05-08T01:27:17.732Z,63.57
2023-05-08T01:30:41.614Z,64.65
2023-05-08T01:33:42.482Z,63.65
2023-05-08T01:36:41.009Z,63.61
2023-05-08T01:39:44.724Z,63.76
2023-05-08T01:42:28.724Z,63.95
2023-05-08T01:45:07.611Z,63.49
2023-05-08T01:47:40.976Z,63.67
2023-05-08T01:50:31.134Z,63.38
2023-05-08T01:53:12.564Z,63.52
2023-05-08T01:55:50.259Z,63.34
2023-05-08T01:58:24.413Z,63.06
2023-05-08T02:00:58.939Z,63.41
2023-05-08T02:03:33.870Z,63.67
2023-05-08T02:06:06.809Z,64.66
2023-05-08T02:08:38.708Z,64.55
2023-05-08T02:11:13.668Z,63.49
2023-05-08T02:13:48.587Z,63.74
2023-05-08T02:16:22.083Z,64.32
2023-05-08T02:18:55.857Z,64.63
2023-05-08T02:21:31.080Z,63.93
2023-05-08T02:24:04.241Z,63.71
2023-05-08T02:26:38.235Z,64.17
2023-05-08T02:29:10.328Z,63.61
2023-05-08T02:31:43.094Z,63.73
2023-05-08T02:34:16.538Z,63.05
2023-05-08T02:36:52.183Z,64.08
2023-05-08T02:39:29.823Z,63.40
2023-05-08T02:42:02.350Z,63.49
2023-05-08T02:44:34.001Z,64.21
2023-05-08T02:47:24.287Z,64.06
2023-05-08T02:50:32.913Z,65.84
2023-05-08T02:53:11.593Z,63.95
2023-05-08T02:55:50.701Z,64.13
2023-05-08T02:58:46.438Z,64.78
2023-05-08T03:01:27.441Z,65.09
2023-05-08T03:04:09.150Z,66.79
2023-05-08T03:06:47.705Z,67.08
2023-05-08T03:09:21.797Z,66.33
2023-05-08T03:12:03.687Z,67.53
2023-05-08T03:14:42.167Z,67.05
2023-05-08T03:17:17.102Z,65.66
2023-05-08T03:19:53.756Z,65.82
2023-05-08T03:22:28.437Z,65.75
2023-05-08T03:25:02.588Z,65.65
2023-05-08T03:27:35.731Z,65.15
2023-05-08T03:30:12.076Z,64.18
2023-05-08T03:32:46.424Z,65.06
2023-05-08T03:35:18.885Z,64.76
2023-05-08T03:37:50.696Z,65.78
2023-05-08T03:40:24.440Z,66.45
2023-05-08T03:42:58.246Z,65.70
2023-05-08T03:45:34.677Z,65.48
2023-05-08T03:48:08.285Z,66.83
2023-05-08T03:50:40.094Z,66.17
2023-05-08T03:53:11.742Z,68.18
2023-05-08T03:55:43.535Z,69.90
2023-05-08T03:58:24.573Z,66.59
2023-05-08T04:01:26.058Z,68.43
2023-05-08T04:04:32.006Z,68.72
2023-05-08T04:07:14.869Z,67.90
2023-05-08T04:10:15.942Z,65.82
2023-05-08T04:13:08.942Z,64.94
2023-05-08T04:16:20.104Z,66.51
2023-05-08T04:19:03.383Z,66.46
2023-05-08T04:21:36.408Z,68.35
2023-05-08T04:24:11.304Z,67.97
2023-05-08T04:26:44.493Z,67.59
2023-05-08T04:29:17.186Z,68.32
2023-05-08T04:31:50.912Z,69.07
2023-05-08T04:34:23.220Z,69.57
2023-05-08T04:36:54.856Z,69.91
2023-05-08T04:39:29.228Z,67.63
2023-05-08T04:42:03.683Z,68.03
2023-05-08T04:44:35.512Z,69.40
2023-05-08T04:47:07.117Z,69.08
2023-05-08T04:49:38.674Z,69.46
2023-05-08T04:52:13.057Z,69.44
2023-05-08T04:54:44.705Z,67.95
2023-05-08T04:57:16.318Z,67.94
2023-05-08T04:59:47.972Z,67.93
2023-05-08T05:02:19.587Z,66.84
2023-05-08T05:04:51.227Z,67.41
2023-05-08T05:07:22.806Z,67.29
2023-05-08T05:09:54.501Z,67.05
2023-05-08T05:12:26.143Z,68.89
2023-05-08T05:14:57.773Z,68.25
2023-05-08T05:17:35.505Z,70.52
2023-05-08T05:20:09.034Z,70.19
2023-05-08T05:22:41.063Z,68.94
2023-05-08T05:25:13.043Z,68.49
2023-05-08T05:27:47.593Z,68.82
2023-05-08T05:30:19.336Z,69.17
2023-05-08T05:32:51.064Z,70.82
2023-05-08T05:35:25.365Z,71.30
2023-05-08T05:37:57.193Z,70.12
2023-05-08T05:40:28.770Z,69.35
2023-05-08T05:43:00.354Z,69.57
2023-05-08T05:45:33.567Z,69.29
2023-05-08T05:48:06.705Z,70.34
2023-05-08T05:50:38.339Z,72.64
2023-05-08T05:53:10.009Z,71.71
2023-05-08T05:55:41.667Z,71.35
2023-05-08T05:58:13.226Z,69.68
2023-05-08T06:00:44.822Z,71.33
2023-05-08T06:03:16.513Z,71.39
2023-05-08T06:05:48.315Z,72.89
2023-05-08T06:08:19.911Z,73.80
2023-05-08T06:10:51.684Z,71.33
2023-05-08T06:13:23.291Z,72.52
2023-05-08T06:15:58.686Z,71.81
2023-05-08T06:18:30.231Z,72.40
2023-05-08T06:21:01.922Z,71.86
2023-05-08T06:23:33.642Z,72.73
2023-05-08T06:26:05.330Z,72.25
2023-05-08T06:28:36.937Z,72.16
2023-05-08T06:31:08.575Z,72.45
2023-05-08T06:33:40.341Z,71.97
2023-05-08T06:36:12.483Z,73.45
2023-05-08T06:38:44.165Z,74.09
2023-05-08T06:41:15.799Z,72.31
2023-05-08T06:43:47.383Z,73.37
2023-05-08T06:46:21.567Z,72.20
2023-05-08T06:48:53.163Z,74.55
2023-05-08T06:51:24.831Z,74.24
2023-05-08T06:53:56.383Z,75.51
2023-05-08T06:56:28.110Z,75.33
2023-05-08T06:59:08.327Z,73.24
2023-05-08T07:01:41.700Z,74.72
2023-05-08T07:04:13.903Z,72.12
2023-05-08T07:06:45.741Z,73.08
2023-05-08T07:09:18.039Z,74.17
2023-05-08T07:11:52.861Z,73.32
2023-05-08T07:14:27.624Z,72.99
2023-05-08T07:17:06.991Z,73.38
2023-05-08T07:19:38.749Z,71.52
2023-05-08T07:22:10.970Z,73.21
2023-05-08T07:24:42.678Z,74.25
2023-05-08T07:27:17.496Z,72.82
2023-05-08T07:29:49.028Z,70.15
2023-05-08T07:32:20.654Z,71.37
2023-05-08T07:34:52.220Z,71.93
2023-05-08T07:37:24.032Z,72.24
2023-05-08T07:39:55.589Z,71.87
2023-05-08T07:42:27.306Z,73.53
2023-05-08T07:45:00.400Z,75.53
2023-05-08T07:47:32.415Z,72.51
2023-05-08T07:50:04.634Z,70.87
2023-05-08T07:52:36.195Z,72.96
2023-05-08T07:55:08.495Z,73.22
2023-05-08T07:57:41.877Z,71.43
2023-05-08T08:00:15.472Z,70.75
2023-05-08T08:02:49.424Z,71.01
2023-05-08T08:05:21.469Z,72.64
2023-05-08T08:07:53.103Z,71.67
2023-05-08T08:10:24.738Z,73.25
2023-05-08T08:12:56.392Z,72.41
2023-05-08T08:15:28.825Z,71.54
2023-05-08T08:18:00.768Z,71.81
2023-05-08T08:20:32.534Z,73.53
2023-05-08T08:23:06.708Z,71.57
2023-05-08T08:25:38.311Z,72.47
2023-05-08T08:28:12.375Z,70.56
2023-05-08T08:30:44.018Z,70.95
2023-05-08T08:33:17.571Z,69.46
2023-05-08T08:35:50.607Z,68.65
2023-05-08T08:38:22.258Z,68.11
2023-05-08T08:40:54.279Z,68.83
2023-05-08T08:43:26.683Z,71.55
2023-05-08T08:45:59.486Z,70.51
2023-05-08T08:48:32.098Z,69.54
2023-05-08T08:51:12.610Z,70.82
2023-05-08T08:53:53.365Z,69.96
2023-05-08T08:56:27.405Z,69.37
2023-05-08T08:59:00.845Z,70.49
2023-05-08T09:01:38.454Z,70.88
2023-05-08T09:04:10.785Z,72.93
2023-05-08T09:06:42.702Z,70.97
2023-05-08T09:09:14.408Z,70.32
2023-05-08T09:11:47.114Z,68.55
2023-05-08T09:14:19.093Z,70.42
2023-05-08T09:16:50.737Z,71.57
2023-05-08T09:19:26.262Z,70.71
2023-05-08T09:22:01.351Z,70.93
2023-05-08T09:24:59.986Z,73.03
2023-05-08T09:27:32.838Z,71.39
2023-05-08T09:30:07.048Z,70.78
2023-05-08T09:32:41.561Z,70.57
2023-05-08T09:35:13.871Z,69.44
2023-05-08T09:37:50.046Z,69.43
2023-05-08T09:40:22.799Z,69.21
2023-05-08T09:42:54.405Z,70.05
2023-05-08T09:45:33.342Z,68.99
2023-05-08T09:48:05.852Z,69.84
2023-05-08T09:50:41.673Z,70.04
2023-05-08T09:53:16.107Z,72.75
2023-05-08T09:55:50.837Z,71.92
2023-05-08T09:58:23.324Z,71.86
2023-05-08T10:00:55.033Z,71.29
2023-05-08T10:03:49.445Z,71.19
2023-05-08T10:06:21.170Z,71.83
2023-05-08T10:09:19.064Z,70.29
2023-05-08T10:11:52.741Z,68.89
2023-05-08T10:14:25.231Z,66.01
2023-05-08T10:16:58.586Z,65.61
2023-05-08T10:19:31.396Z,67.03
2023-05-08T10:22:04.438Z,68.46
2023-05-08T10:24:41.789Z,69.52
2023-05-08T10:27:53.037Z,71.73
2023-05-08T10:30:26.699Z,68.96
2023-05-08T10:32:59.785Z,66.57
2023-05-08T10:35:31.665Z,63.66
2023-05-08T10:38:05.050Z,60.91
2023-05-08T10:40:38.161Z,63.89
2023-05-08T10:43:13.273Z,61.88
2023-05-08T10:45:45.140Z,61.89
2023-05-08T10:48:56.392Z,66.38
2023-05-08T10:51:46.334Z,70.01
2023-05-08T10:55:04.793Z,68.70
2023-05-08T10:57:36.461Z,65.91
2023-05-08T11:00:08.826Z,64.67
2023-05-08T11:02:40.617Z,65.68
2023-05-08T11:05:17.043Z,66.38
2023-05-08T11:07:59.962Z,65.99
2023-05-08T11:10:33.245Z,66.13
2023-05-08T11:13:07.379Z,64.67
2023-05-08T11:15:41.642Z,66.18
2023-05-08T11:18:17.627Z,66.93
2023-05-08T11:21:00.758Z,65.03
2023-05-08T11:23:36.724Z,63.61
2023-05-08T11:26:11.455Z,66.25
2023-05-08T11:29:02.057Z,65.00
2023-05-08T11:31:50.309Z,64.55
2023-05-08T11:34:49.978Z,65.66
2023-05-08T11:37:24.483Z,64.01
2023-05-08T11:40:45.498Z,63.38
2023-05-08T11:43:32.561Z,58.23
2023-05-08T11:46:19.214Z,58.67
2023-05-08T11:49:00.597Z,55.80
2023-05-08T11:51:33.558Z,55.55
2023-05-08T11:54:05.558Z,52.82
2023-05-08T11:56:38.915Z,54.71
2023-05-08T11:59:10.574Z,52.64
2023-05-08T12:01:46.307Z,50.32
2023-05-08T12:04:20.360Z,47.22
2023-05-08T12:06:57.641Z,49.40
2023-05-08T12:09:29.362Z,51.72
2023-05-08T12:12:01.046Z,52.91
2023-05-08T12:14:34.796Z,53.98
2023-05-08T12:17:06.404Z,54.96
2023-05-08T12:19:37.988Z,53.19
2023-05-08T12:22:12.695Z,49.76
2023-05-08T12:24:44.355Z,51.15
2023-05-08T12:27:16.012Z,51.31
2023-05-08T12:29:47.620Z,50.07
2023-05-08T12:32:19.223Z,50.50
2023-05-08T12:34:52.587Z,48.65
2023-05-08T12:37:27.699Z,46.00
2023-05-08T12:39:59.417Z,48.99
2023-05-08T12:42:51.123Z,48.68
2023-05-08T12:45:34.724Z,43.60
2023-05-08T12:48:09.677Z,44.76
2023-05-08T12:50:44.929Z,49.08
2023-05-08T12:53:19.362Z,46.57
2023-05-08T12:55:57.836Z,51.49
2023-05-08T12:58:34.744Z,52.27
2023-05-08T13:01:18.661Z,48.87
2023-05-08T13:04:01.674Z,49.78
2023-05-08T13:06:34.071Z,44.22
2023-05-08T13:09:08.766Z,43.85
2023-05-08T13:11:40.330Z,43.86
2023-05-08T13:14:11.935Z,44.44
2023-05-08T13:16:47.905Z,45.12
2023-05-08T13:19:19.636Z,48.07
2023-05-08T13:21:52.891Z,48.88
2023-05-08T13:24:25.825Z,49.93
2023-05-08T13:26:57.389Z,49.86
2023-05-08T13:29:28.959Z,49.71
2023-05-08T13:32:00.606Z,45.72
2023-05-08T13:34:32.317Z,44.96
2023-05-08T13:37:04.008Z,46.57
2023-05-08T13:39:37.502Z,44.80
2023-05-08T13:42:09.011Z,42.78
2023-05-08T13:44:40.737Z,42.54
2023-05-08T13:47:12.317Z,41.02
2023-05-08T13:49:44.879Z,39.79
2023-05-08T13:52:17.493Z,43.57
2023-05-08T13:54:49.112Z,44.49
2023-05-08T13:57:20.989Z,44.81
2023-05-08T13:59:52.552Z,43.35
2023-05-08T14:02:24.308Z,41.59
2023-05-08T14:04:56.595Z,40.85
2023-05-08T14:07:28.287Z,44.53
2023-05-08T14:10:00.266Z,44.46
2023-05-08T14:12:36.129Z,44.39
2023-05-08T14:15:12.084Z,44.76
2023-05-08T14:17:44.100Z,48.83
2023-05-08T14:20:15.734Z,47.69
2023-05-08T14:22:47.372Z,46.18
2023-05-08T14:25:18.954Z,44.15
2023-05-08T14:27:50.489Z,42.14
2023-05-08T14:30:22.197Z,43.01
2023-05-08T14:32:53.877Z,43.49
2023-05-08T14:35:25.842Z,44.30
2023-05-08T14:37:57.417Z,45.14
2023-05-08T14:40:29.070Z,46.66
2023-05-08T14:43:00.605Z,45.59
2023-05-08T14:45:32.187Z,45.70
2023-05-08T14:48:05.374Z,44.38
2023-05-08T14:50:39.047Z,46.21
2023-05-08T14:53:10.894Z,46.57
2023-05-08T14:55:42.755Z,46.77
2023-05-08T14:58:14.533Z,48.22
2023-05-08T15:00:46.564Z,48.57
2023-05-08T15:03:18.692Z,50.29
2023-05-08T15:05:50.558Z,50.40
2023-05-08T15:08:25.822Z,51.87
2023-05-08T15:11:04.992Z,51.13
2023-05-08T15:13:44.211Z,50.72
2023-05-08T15:16:15.844Z,51.59
2023-05-08T15:18:47.452Z,52.43
2023-05-08T15:21:21.695Z,53.16
2023-05-08T15:23:55.108Z,53.89
2023-05-08T15:26:26.741Z,53.79
2023-05-08T15:28:58.332Z,54.21
2023-05-08T15:31:30.121Z,55.16
2023-05-08T15:34:01.906Z,55.46
2023-05-08T15:36:35.262Z,56.30
2023-05-08T15:39:06.984Z,55.07
2023-05-08T15:41:39.903Z,54.98
2023-05-08T15:44:11.533Z,53.55
2023-05-08T15:46:43.059Z,47.60
2023-05-08T15:49:14.585Z,44.63
2023-05-08T15:51:46.163Z,43.79
2023-05-08T15:54:18.104Z,42.33
2023-05-08T15:56:49.694Z,42.76
2023-05-08T15:59:21.263Z,42.19
2023-05-08T16:01:53.655Z,40.04
2023-05-08T16:04:25.495Z,39.95
2023-05-08T16:06:59.252Z,41.70
2023-05-08T16:09:33.925Z,44.07
2023-05-08T16:12:05.957Z,47.40
2023-05-08T16:14:37.561Z,52.13
2023-05-08T16:17:09.225Z,47.31
2023-05-08T16:19:40.866Z,47.32
2023-05-08T16:22:12.571Z,46.38
2023-05-08T16:24:44.194Z,45.62
2023-05-08T16:27:17.939Z,46.31
2023-05-08T16:29:49.597Z,48.48
2023-05-08T16:32:21.183Z,51.22
2023-05-08T16:34:52.750Z,50.30
2023-05-08T16:37:24.445Z,51.52
2023-05-08T16:39:56.115Z,53.73
2023-05-08T16:42:27.703Z,54.19
2023-05-08T16:45:04.542Z,52.26
2023-05-08T16:47:36.572Z,51.55
2023-05-08T16:50:08.929Z,51.13
2023-05-08T16:52:40.569Z,51.97
2023-05-08T16:55:12.417Z,51.95
2023-05-08T16:57:44.269Z,52.20
2023-05-08T17:00:16.308Z,50.10
2023-05-08T17:02:48.069Z,49.41
2023-05-08T17:05:19.823Z,48.89
2023-05-08T17:07:51.673Z,48.19
2023-05-08T17:10:23.767Z,48.71
2023-05-08T17:12:55.746Z,48.36
2023-05-08T17:15:27.398Z,49.33
2023-05-08T17:18:01.418Z,47.86
2023-05-08T17:20:40.695Z,53.02
2023-05-08T17:23:12.599Z,55.89
2023-05-08T17:25:44.268Z,54.68
2023-05-08T17:28:15.835Z,56.13
2023-05-08T17:30:48.225Z,57.40
2023-05-08T17:33:21.043Z,54.99
2023-05-08T17:35:52.859Z,54.32
2023-05-08T17:38:27.853Z,52.31
2023-05-08T17:41:00.423Z,51.47
2023-05-08T17:43:32.441Z,51.79
2023-05-08T17:46:04.109Z,53.96
2023-05-08T17:48:35.997Z,53.74
2023-05-08T17:51:12.806Z,53.33
2023-05-08T17:53:44.563Z,53.10
2023-05-08T17:56:20.389Z,53.22
2023-05-08T17:58:52.778Z,53.18
2023-05-08T18:01:25.590Z,53.46
2023-05-08T18:03:57.834Z,53.26
2023-05-08T18:06:29.601Z,53.20
2023-05-08T18:09:04.434Z,53.22
2023-05-08T18:11:36.270Z,54.97
2023-05-08T18:14:08.009Z,56.76
2023-05-08T18:16:39.585Z,56.39
2023-05-08T18:19:11.887Z,56.91
2023-05-08T18:21:43.465Z,57.30
2023-05-08T18:24:15.115Z,57.85
2023-05-08T18:26:52.402Z,57.97
2023-05-08T18:29:27.924Z,57.55
2023-05-08T18:31:59.455Z,57.65
2023-05-08T18:34:32.874Z,56.88
2023-05-08T18:37:05.315Z,57.15
2023-05-08T18:39:36.871Z,57.35
2023-05-08T18:42:08.711Z,57.82
2023-05-08T18:44:41.090Z,58.54
2023-05-08T18:47:14.742Z,58.51
2023-05-08T18:49:46.385Z,58.15
2023-05-08T18:52:20.533Z,58.05
2023-05-08T18:54:52.405Z,57.50
2023-05-08T18:57:27.077Z,57.31
2023-05-08T19:00:00.339Z,57.38
2023-05-08T19:02:32.602Z,57.51
2023-05-08T19:05:04.798Z,57.44
2023-05-08T19:07:37.182Z,58.14
2023-05-08T19:10:09.245Z,59.45
2023-05-08T19:12:41.068Z,58.96
2023-05-08T19:15:15.916Z,58.91
2023-05-08T19:17:48.798Z,58.52
2023-05-08T19:20:22.989Z,58.43
2023-05-08T19:23:03.430Z,58.01
2023-05-08T19:25:35.792Z,57.92
2023-05-08T19:28:09.823Z,58.96
2023-05-08T19:30:41.393Z,59.67
2023-05-08T19:33:13.121Z,59.78
2023-05-08T19:35:47.038Z,59.21
2023-05-08T19:38:18.863Z,59.24
2023-05-08T19:40:57.105Z,59.20
2023-05-08T19:43:29.819Z,58.95
2023-05-08T19:46:01.786Z,59.15
2023-05-08T19:48:33.484Z,59.87
2023-05-08T19:51:07.416Z,59.59
2023-05-08T19:53:39.985Z,59.73
2023-05-08T19:56:11.666Z,59.83
2023-05-08T19:58:43.349Z,59.86
2023-05-08T20:01:14.981Z,59.62
2023-05-08T20:03:49.864Z,59.85
2023-05-08T20:06:21.454Z,60.04
2023-05-08T20:08:53.371Z,59.93
2023-05-08T20:11:34.911Z,60.05
2023-05-08T20:14:12.276Z,60.23
2023-05-08T20:16:44.127Z,60.07
2023-05-08T20:19:15.818Z,60.25
2023-05-08T20:21:47.879Z,60.70
2023-05-08T20:24:23.014Z,60.25
2023-05-08T20:26:56.285Z,59.79
2023-05-08T20:29:27.966Z,59.52
2023-05-08T20:34:31.125Z,60.08
2023-05-08T20:37:03.847Z,59.64
2023-05-08T20:39:35.528Z,59.69
2023-05-08T20:42:07.160Z,59.45
2023-05-08T20:44:38.752Z,59.69
2023-05-08T20:47:10.503Z,59.91
2023-05-08T20:49:42.084Z,59.61
2023-05-08T20:52:13.713Z,60.04
2023-05-08T20:54:47.268Z,59.73
2023-05-08T20:57:18.907Z,59.85
2023-05-08T20:59:50.516Z,60.48
2023-05-08T21:02:22.149Z,60.61
2023-05-08T21:04:56.941Z,61.38
2023-05-08T21:07:31.604Z,60.97
2023-05-08T21:10:03.467Z,60.73
2023-05-08T21:12:35.094Z,60.97
2023-05-08T21:15:07.900Z,60.87
2023-05-08T21:17:39.525Z,60.59
2023-05-08T21:20:12.017Z,60.83
2023-05-08T21:22:46.273Z,60.83
2023-05-08T21:25:18.194Z,60.55
2023-05-08T21:27:49.911Z,60.83
2023-05-08T21:30:21.699Z,60.64
2023-05-08T21:32:53.439Z,61.14
2023-05-08T21:35:25.105Z,61.14
2023-05-08T21:37:56.670Z,61.29
2023-05-08T21:40:28.216Z,61.35
2023-05-08T21:43:00.328Z,61.35
2023-05-08T21:45:32.876Z,61.81
2023-05-08T21:48:05.028Z,62.42
2023-05-08T21:50:36.630Z,62.39
2023-05-08T21:53:08.196Z,62.95
2023-05-08T21:55:42.900Z,62.67
2023-05-08T21:58:17.788Z,62.76
2023-05-08T22:00:49.343Z,63.81
2023-05-08T22:03:21.164Z,63.06
2023-05-08T22:05:52.765Z,62.66
2023-05-08T22:08:24.391Z,62.66
2023-05-08T22:10:56.222Z,62.86
2023-05-08T22:13:27.954Z,62.77
2023-05-08T22:15:59.657Z,62.70
2023-05-08T22:18:31.324Z,63.11
2023-05-08T22:21:02.890Z,63.07
2023-05-08T22:23:37.489Z,62.82
2023-05-08T22:26:09.056Z,62.07
2023-05-08T22:28:40.714Z,61.90
2023-05-08T22:31:12.866Z,61.19
2023-05-08T22:33:44.451Z,60.59
2023-05-08T22:36:16.048Z,60.54
2023-05-08T22:38:47.630Z,60.43
2023-05-08T22:41:21.274Z,60.24
2023-05-08T22:43:53.202Z,60.18
2023-05-08T22:46:25.100Z,60.57
2023-05-08T22:48:56.871Z,60.32
2023-05-08T22:51:28.542Z,60.90
2023-05-08T22:54:00.176Z,60.64
2023-05-08T22:56:35.688Z,60.72
2023-05-08T22:59:07.252Z,60.46
2023-05-08T23:01:38.909Z,60.33
2023-05-08T23:04:10.759Z,60.93
2023-05-08T23:06:42.339Z,61.02
2023-05-08T23:09:14.015Z,61.31
2023-05-08T23:11:45.813Z,61.87
2023-05-08T23:14:19.710Z,62.76
2023-05-08T23:16:51.397Z,63.00
2023-05-08T23:19:23.039Z,63.70
2023-05-08T23:21:54.650Z,63.34
2023-05-08T23:24:26.212Z,62.83
2023-05-08T23:26:57.794Z,63.53
2023-05-08T23:29:29.652Z,63.63
2023-05-08T23:32:01.465Z,63.30
2023-05-08T23:34:33.131Z,62.90
2023-05-08T23:37:04.918Z,62.96
2023-05-08T23:39:41.095Z,62.68
2023-05-08T23:42:12.831Z,63.62
2023-05-08T23:44:44.379Z,63.49
2023-05-08T23:47:16.156Z,63.87
2023-05-08T23:49:47.892Z,64.49
2023-05-08T23:52:20.673Z,65.63
2023-05-08T23:54:52.296Z,65.69
2023-05-08T23:57:24.290Z,65.04
2023-05-08T23:59:58.880Z,65.20
